createdAt,value
2019-05-15T00:00:28.900Z,26.52
2019-05-15T00:01:28.678Z,26.51
2019-05-15T00:02:28.156Z,26.50
2019-05-15T00:03:28.786Z,26.50
2019-05-15T00:04:28.192Z,26.44
2019-05-15T00:05:29.200Z,26.47
2019-05-15T00:06:28.626Z,26.50
2019-05-15T00:07:29.348Z,26.44
2019-05-15T00:08:28.770Z,26.48
2019-05-15T00:09:28.645Z,26.52
2019-05-15T00:10:28.775Z,26.48
2019-05-15T00:11:28.738Z,26.45
2019-05-15T00:12:28.475Z,26.44
2019-05-15T00:13:28.402Z,26.47
2019-05-15T00:14:28.819Z,26.50
2019-05-15T00:15:28.164Z,26.43
2019-05-15T00:16:29.069Z,26.43
2019-05-15T00:17:28.381Z,26.40
2019-05-15T00:18:28.304Z,26.43
2019-05-15T00:19:28.506Z,26.47
2019-05-15T00:20:29.493Z,26.48
2019-05-15T00:21:28.822Z,26.45
2019-05-15T00:22:29.171Z,26.43
2019-05-15T00:23:29.140Z,26.45
2019-05-15T00:24:28.781Z,26.47
2019-05-15T00:25:28.376Z,26.50
2019-05-15T00:26:30.039Z,26.40
2019-05-15T00:27:28.566Z,26.45
2019-05-15T00:28:28.202Z,26.44
2019-05-15T00:29:28.898Z,26.47
2019-05-15T00:30:28.978Z,26.50
2019-05-15T00:31:29.158Z,26.39
2019-05-15T00:32:28.349Z,26.40
2019-05-15T00:33:28.708Z,26.45
2019-05-15T00:34:28.655Z,26.48
2019-05-15T00:35:30.622Z,26.45
2019-05-15T00:36:28.648Z,26.51
2019-05-15T00:37:28.853Z,26.45
2019-05-15T00:38:28.216Z,26.48
2019-05-15T00:39:28.533Z,26.44
2019-05-15T00:40:28.881Z,26.45
2019-05-15T00:41:28.222Z,26.48
2019-05-15T00:42:28.520Z,26.40
2019-05-15T00:43:29.127Z,26.45
2019-05-15T00:44:28.230Z,26.47
2019-05-15T00:45:28.230Z,26.50
2019-05-15T00:46:29.006Z,26.44
2019-05-15T00:47:28.725Z,26.51
2019-05-15T00:48:29.240Z,26.50
2019-05-15T00:49:28.992Z,26.45
2019-05-15T00:50:28.757Z,26.45
2019-05-15T00:51:28.565Z,26.44
2019-05-15T00:52:28.404Z,26.43
2019-05-15T00:53:28.451Z,26.37
2019-05-15T00:54:28.330Z,26.48
2019-05-15T00:55:28.474Z,26.47
2019-05-15T00:56:28.488Z,26.45
2019-05-15T00:57:28.455Z,26.39
2019-05-15T00:58:28.479Z,26.47
2019-05-15T00:59:29.949Z,26.44
2019-05-15T01:00:28.311Z,26.45
2019-05-15T01:01:28.777Z,26.36
2019-05-15T01:02:28.657Z,26.36
2019-05-15T01:03:28.267Z,26.36
2019-05-15T01:04:28.268Z,26.45
2019-05-15T01:05:28.271Z,26.47
2019-05-15T01:06:28.567Z,26.45
2019-05-15T01:07:28.316Z,26.47
2019-05-15T01:08:28.604Z,26.43
2019-05-15T01:09:29.237Z,26.45
2019-05-15T01:10:28.816Z,26.47
2019-05-15T01:11:28.552Z,26.45
2019-05-15T01:12:29.143Z,26.40
2019-05-15T01:13:28.329Z,26.45
2019-05-15T01:14:28.296Z,26.35
2019-05-15T01:15:28.995Z,26.50
2019-05-15T01:16:28.309Z,26.43
2019-05-15T01:17:29.084Z,26.44
2019-05-15T01:18:29.212Z,26.45
2019-05-15T01:19:28.766Z,26.45
2019-05-15T01:20:28.629Z,26.37
2019-05-15T01:21:28.308Z,26.43
2019-05-15T01:22:28.725Z,26.40
2019-05-15T01:23:28.406Z,26.47
2019-05-15T01:24:28.427Z,26.39
2019-05-15T01:25:28.314Z,26.43
2019-05-15T01:26:28.363Z,26.43
2019-05-15T01:27:29.146Z,26.45
2019-05-15T01:28:28.918Z,26.44
2019-05-15T01:29:40.559Z,26.45
2019-05-15T01:30:28.689Z,26.44
2019-05-15T01:31:28.654Z,26.47
2019-05-15T01:32:28.500Z,26.47
2019-05-15T01:33:28.477Z,26.36
2019-05-15T01:34:29.424Z,26.47
2019-05-15T01:35:28.791Z,26.35
2019-05-15T01:36:28.897Z,26.47
2019-05-15T01:37:28.338Z,26.47
2019-05-15T01:38:28.340Z,26.43
2019-05-15T01:39:29.053Z,26.39
2019-05-15T01:40:28.878Z,26.43
2019-05-15T01:41:28.355Z,26.39
2019-05-15T01:42:28.450Z,26.36
2019-05-15T01:43:29.106Z,26.44
2019-05-15T01:44:28.825Z,26.47
2019-05-15T01:45:28.663Z,26.39
2019-05-15T01:46:28.679Z,26.39
2019-05-15T01:47:28.360Z,26.44
2019-05-15T01:48:28.445Z,26.39
2019-05-15T01:49:28.363Z,26.35
2019-05-15T01:50:29.237Z,26.35
2019-05-15T01:51:28.678Z,26.40
2019-05-15T01:52:28.421Z,26.48
2019-05-15T01:53:29.051Z,26.44
2019-05-15T01:54:29.031Z,26.44
2019-05-15T01:55:28.535Z,26.47
2019-05-15T01:56:29.323Z,26.35
2019-05-15T01:57:28.841Z,26.40
2019-05-15T01:58:28.861Z,26.44
2019-05-15T01:59:28.549Z,26.40
2019-05-15T02:00:28.491Z,26.39
2019-05-15T02:01:28.551Z,26.39
2019-05-15T02:02:28.389Z,26.40
2019-05-15T02:03:29.033Z,26.43
2019-05-15T02:04:28.971Z,26.35
2019-05-15T02:05:28.437Z,26.35
2019-05-15T02:06:28.632Z,26.36
2019-05-15T02:07:28.400Z,26.36
2019-05-15T02:08:28.667Z,26.43
2019-05-15T02:09:28.405Z,26.32
2019-05-15T02:10:29.204Z,26.35
2019-05-15T02:11:28.989Z,26.39
2019-05-15T02:12:28.647Z,26.44
2019-05-15T02:13:28.424Z,26.35
2019-05-15T02:14:28.631Z,26.37
2019-05-15T02:15:28.669Z,26.35
2019-05-15T02:16:28.820Z,26.33
2019-05-15T02:17:28.472Z,26.36
2019-05-15T02:18:28.726Z,26.36
2019-05-15T02:19:28.864Z,26.36
2019-05-15T02:20:29.126Z,26.36
2019-05-15T02:21:29.000Z,26.37
2019-05-15T02:22:28.521Z,26.44
2019-05-15T02:23:28.433Z,26.37
2019-05-15T02:24:28.564Z,26.43
2019-05-15T02:25:28.444Z,26.44
2019-05-15T02:26:28.451Z,26.36
2019-05-15T02:27:29.376Z,26.36
2019-05-15T02:28:29.003Z,26.36
2019-05-15T02:29:28.741Z,26.40
2019-05-15T02:30:33.619Z,26.40
2019-05-15T02:31:30.170Z,26.35
2019-05-15T02:32:30.163Z,26.39
2019-05-15T02:33:30.169Z,26.36
2019-05-15T02:34:30.156Z,26.43
2019-05-15T02:35:29.525Z,26.36
2019-05-15T02:36:29.300Z,26.40
2019-05-15T02:37:29.492Z,26.43
2019-05-15T02:38:29.597Z,26.36
2019-05-15T02:39:29.123Z,26.44
2019-05-15T02:40:29.432Z,26.44
2019-05-15T02:41:29.886Z,26.39
2019-05-15T02:42:29.165Z,26.44
2019-05-15T02:43:29.894Z,26.43
2019-05-15T02:44:29.177Z,26.40
2019-05-15T02:45:30.075Z,26.39
2019-05-15T02:46:30.062Z,26.35
2019-05-15T02:47:29.178Z,26.39
2019-05-15T02:48:29.123Z,26.37
2019-05-15T02:49:30.229Z,26.43
2019-05-15T02:50:29.303Z,26.35
2019-05-15T02:51:29.935Z,26.36
2019-05-15T02:52:29.482Z,26.35
2019-05-15T02:53:29.917Z,26.33
2019-05-15T02:54:29.931Z,26.37
2019-05-15T02:55:29.605Z,26.39
2019-05-15T02:56:29.279Z,26.33
2019-05-15T02:57:30.028Z,26.30
2019-05-15T02:58:29.400Z,26.33
2019-05-15T02:59:29.202Z,26.35
2019-05-15T03:00:41.203Z,26.36
2019-05-15T03:01:28.721Z,26.35
2019-05-15T03:02:28.758Z,26.40
2019-05-15T03:03:29.434Z,26.36
2019-05-15T03:04:29.252Z,26.33
2019-05-15T03:05:29.477Z,26.36
2019-05-15T03:06:29.925Z,26.36
2019-05-15T03:07:29.468Z,26.36
2019-05-15T03:08:29.749Z,26.35
2019-05-15T03:09:29.728Z,26.35
2019-05-15T03:10:29.681Z,26.37
2019-05-15T03:11:29.531Z,26.33
2019-05-15T03:12:29.192Z,26.39
2019-05-15T03:13:30.000Z,26.35
2019-05-15T03:14:29.253Z,26.32
2019-05-15T03:15:29.120Z,26.35
2019-05-15T03:16:30.437Z,26.30
2019-05-15T03:17:29.697Z,26.29
2019-05-15T03:18:29.110Z,26.32
2019-05-15T03:19:29.960Z,26.33
2019-05-15T03:20:29.860Z,26.39
2019-05-15T03:21:29.465Z,26.21
2019-05-15T03:22:29.513Z,26.25
2019-05-15T03:23:29.629Z,26.35
2019-05-15T03:24:29.053Z,26.25
2019-05-15T03:25:29.752Z,26.39
2019-05-15T03:26:29.920Z,26.33
2019-05-15T03:27:30.305Z,26.37
2019-05-15T03:28:29.481Z,26.30
2019-05-15T03:29:29.315Z,26.36
2019-05-15T03:30:32.420Z,26.29
2019-05-15T03:31:47.751Z,26.33
2019-05-15T03:32:42.239Z,26.25
2019-05-15T03:33:35.918Z,26.28
2019-05-15T03:34:36.837Z,26.23
2019-05-15T03:35:32.859Z,26.30
2019-05-15T03:36:31.553Z,26.37
2019-05-15T03:37:33.178Z,26.29
2019-05-15T03:38:29.572Z,26.37
2019-05-15T03:39:29.703Z,26.35
2019-05-15T03:40:29.849Z,26.36
2019-05-15T03:41:29.858Z,26.37
2019-05-15T03:42:29.379Z,26.36
2019-05-15T03:43:29.212Z,26.30
2019-05-15T03:44:28.944Z,26.36
2019-05-15T03:45:29.678Z,26.35
2019-05-15T03:46:29.279Z,26.33
2019-05-15T03:47:30.210Z,26.33
2019-05-15T03:48:29.035Z,26.29
2019-05-15T03:49:29.416Z,26.32
2019-05-15T03:50:29.101Z,26.30
2019-05-15T03:51:29.111Z,26.36
2019-05-15T03:52:29.423Z,26.37
2019-05-15T03:53:29.822Z,26.32
2019-05-15T03:54:29.305Z,26.32
2019-05-15T03:55:29.611Z,26.32
2019-05-15T03:56:29.551Z,26.32
2019-05-15T03:57:30.467Z,26.35
2019-05-15T03:58:29.051Z,26.30
2019-05-15T03:59:29.383Z,26.29
2019-05-15T04:00:30.157Z,26.32
2019-05-15T04:01:38.036Z,26.21
2019-05-15T04:02:28.915Z,26.28
2019-05-15T04:03:30.007Z,26.37
2019-05-15T04:04:29.702Z,26.18
2019-05-15T04:05:29.368Z,26.18
2019-05-15T04:06:29.912Z,26.39
2019-05-15T04:07:29.257Z,26.29
2019-05-15T04:08:29.921Z,26.35
2019-05-15T04:09:29.437Z,26.26
2019-05-15T04:10:28.993Z,26.29
2019-05-15T04:11:29.495Z,26.36
2019-05-15T04:12:29.163Z,26.36
2019-05-15T04:13:30.019Z,26.37
2019-05-15T04:14:29.606Z,26.30
2019-05-15T04:15:30.208Z,26.25
2019-05-15T04:16:29.642Z,26.37
2019-05-15T04:17:29.540Z,26.25
2019-05-15T04:18:29.261Z,26.40
2019-05-15T04:19:29.718Z,26.30
2019-05-15T04:20:29.663Z,26.21
2019-05-15T04:21:30.357Z,26.28
2019-05-15T04:22:29.253Z,26.28
2019-05-15T04:23:30.186Z,26.37
2019-05-15T04:24:30.133Z,26.35
2019-05-15T04:25:29.717Z,26.35
2019-05-15T04:26:29.073Z,26.40
2019-05-15T04:27:29.164Z,26.37
2019-05-15T04:28:29.438Z,26.39
2019-05-15T04:29:29.087Z,26.36
2019-05-15T04:30:30.870Z,26.47
2019-05-15T04:31:31.701Z,26.36
2019-05-15T04:32:29.074Z,26.37
2019-05-15T04:33:29.542Z,26.40
2019-05-15T04:34:29.123Z,26.36
2019-05-15T04:35:29.083Z,26.43
2019-05-15T04:36:29.718Z,26.35
2019-05-15T04:37:29.938Z,26.45
2019-05-15T04:38:29.470Z,26.47
2019-05-15T04:39:29.567Z,26.44
2019-05-15T04:40:29.875Z,26.47
2019-05-15T04:41:29.867Z,26.43
2019-05-15T04:42:29.957Z,26.44
2019-05-15T04:43:32.178Z,26.40
2019-05-15T04:44:29.081Z,26.45
2019-05-15T04:45:34.627Z,26.51
2019-05-15T04:46:29.902Z,26.47
2019-05-15T04:47:30.162Z,26.48
2019-05-15T04:48:29.143Z,26.50
2019-05-15T04:49:29.264Z,26.52
2019-05-15T04:50:29.034Z,26.44
2019-05-15T04:51:30.483Z,26.45
2019-05-15T04:52:30.371Z,26.43
2019-05-15T04:53:29.719Z,26.48
2019-05-15T04:54:29.024Z,26.47
2019-05-15T04:55:29.218Z,26.51
2019-05-15T04:56:29.397Z,26.44
2019-05-15T04:57:33.622Z,26.55
2019-05-15T04:58:29.697Z,26.55
2019-05-15T04:59:29.952Z,26.51
2019-05-15T05:00:29.337Z,26.55
2019-05-15T05:01:29.015Z,26.50
2019-05-15T05:02:32.192Z,26.50
2019-05-15T05:03:29.516Z,26.55
2019-05-15T05:04:29.581Z,26.58
2019-05-15T05:05:29.386Z,26.65
2019-05-15T05:06:29.479Z,26.65
2019-05-15T05:07:29.594Z,26.67
2019-05-15T05:08:29.246Z,26.60
2019-05-15T05:09:29.009Z,26.58
2019-05-15T05:10:29.062Z,26.67
2019-05-15T05:11:28.853Z,26.62
2019-05-15T05:12:29.064Z,26.62
2019-05-15T05:13:28.950Z,26.69
2019-05-15T05:14:28.789Z,26.67
2019-05-15T05:15:29.240Z,26.63
2019-05-15T05:16:29.544Z,26.73
2019-05-15T05:17:29.027Z,26.73
2019-05-15T05:18:29.775Z,26.76
2019-05-15T05:19:28.815Z,26.69
2019-05-15T05:20:28.905Z,26.70
2019-05-15T05:21:28.803Z,26.76
2019-05-15T05:22:28.856Z,26.76
2019-05-15T05:23:28.808Z,26.80
2019-05-15T05:24:28.811Z,26.75
2019-05-15T05:25:28.819Z,26.76
2019-05-15T05:26:29.467Z,26.80
2019-05-15T05:27:28.956Z,26.69
2019-05-15T05:28:29.077Z,26.80
2019-05-15T05:29:28.822Z,26.73
2019-05-15T05:30:29.351Z,26.75
2019-05-15T05:31:29.569Z,26.67
2019-05-15T05:32:34.809Z,26.75
2019-05-15T05:33:28.883Z,26.70
2019-05-15T05:34:28.832Z,26.81
2019-05-15T05:35:28.837Z,26.84
2019-05-15T05:36:28.843Z,26.89
2019-05-15T05:37:28.841Z,26.87
2019-05-15T05:38:28.842Z,26.77
2019-05-15T05:39:29.394Z,26.87
2019-05-15T05:40:29.346Z,26.85
2019-05-15T05:41:28.848Z,26.80
2019-05-15T05:42:29.191Z,26.88
2019-05-15T05:43:29.946Z,26.87
2019-05-15T05:44:29.311Z,26.82
2019-05-15T05:45:28.892Z,26.91
2019-05-15T05:46:28.862Z,26.92
2019-05-15T05:47:28.902Z,26.92
2019-05-15T05:48:29.351Z,26.89
2019-05-15T05:49:28.950Z,26.94
2019-05-15T05:50:28.879Z,26.89
2019-05-15T05:51:28.871Z,26.95
2019-05-15T05:52:28.929Z,26.95
2019-05-15T05:53:28.925Z,26.97
2019-05-15T05:54:28.990Z,26.95
2019-05-15T05:55:28.931Z,26.99
2019-05-15T05:56:28.958Z,26.88
2019-05-15T05:57:28.889Z,26.92
2019-05-15T05:58:29.677Z,26.99
2019-05-15T05:59:28.900Z,26.95
2019-05-15T06:00:29.448Z,26.92
2019-05-15T06:01:28.955Z,26.92
2019-05-15T06:02:43.428Z,26.88
2019-05-15T06:03:29.153Z,26.89
2019-05-15T06:04:29.157Z,26.94
2019-05-15T06:05:28.908Z,26.94
2019-05-15T06:06:29.353Z,26.95
2019-05-15T06:07:28.912Z,26.99
2019-05-15T06:08:28.916Z,26.94
2019-05-15T06:09:28.917Z,26.97
2019-05-15T06:10:29.370Z,27.03
2019-05-15T06:11:28.924Z,26.95
2019-05-15T06:12:28.924Z,27.04
2019-05-15T06:13:29.246Z,26.97
2019-05-15T06:14:28.976Z,27.00
2019-05-15T06:15:28.932Z,26.99
2019-05-15T06:16:29.036Z,27.02
2019-05-15T06:17:28.935Z,27.09
2019-05-15T06:18:28.939Z,27.00
2019-05-15T06:19:31.365Z,27.04
2019-05-15T06:20:28.945Z,27.02
2019-05-15T06:21:28.947Z,27.06
2019-05-15T06:22:28.949Z,27.09
2019-05-15T06:23:34.967Z,27.04
2019-05-15T06:24:30.576Z,27.10
2019-05-15T06:25:30.502Z,27.10
2019-05-15T06:26:28.957Z,27.09
2019-05-15T06:27:28.962Z,27.09
2019-05-15T06:28:29.404Z,27.10
2019-05-15T06:29:28.967Z,27.07
2019-05-15T06:30:30.780Z,27.12
2019-05-15T06:31:28.976Z,27.06
2019-05-15T06:32:29.096Z,27.09
2019-05-15T06:33:29.029Z,27.06
2019-05-15T06:34:29.130Z,27.12
2019-05-15T06:35:31.215Z,27.12
2019-05-15T06:36:29.094Z,27.02
2019-05-15T06:37:29.037Z,27.06
2019-05-15T06:38:31.008Z,27.09
2019-05-15T06:39:28.991Z,27.03
2019-05-15T06:40:29.056Z,27.13
2019-05-15T06:41:29.045Z,27.06
2019-05-15T06:42:29.104Z,27.10
2019-05-15T06:43:29.003Z,27.13
2019-05-15T06:44:29.008Z,27.13
2019-05-15T06:45:29.006Z,27.14
2019-05-15T06:46:29.068Z,27.04
2019-05-15T06:47:29.017Z,27.06
2019-05-15T06:48:29.055Z,27.14
2019-05-15T06:49:29.015Z,27.12
2019-05-15T06:50:29.019Z,27.10
2019-05-15T06:51:29.024Z,27.06
2019-05-15T06:52:29.125Z,27.12
2019-05-15T06:53:29.197Z,27.10
2019-05-15T06:54:29.028Z,27.12
2019-05-15T06:55:29.029Z,27.10
2019-05-15T06:56:29.049Z,27.06
2019-05-15T06:57:29.185Z,27.07
2019-05-15T06:58:29.149Z,27.06
2019-05-15T06:59:29.044Z,27.13
2019-05-15T07:00:29.046Z,27.17
2019-05-15T07:01:29.599Z,27.13
2019-05-15T07:02:29.549Z,27.12
2019-05-15T07:03:29.687Z,27.17
2019-05-15T07:04:29.101Z,27.13
2019-05-15T07:05:29.544Z,27.10
2019-05-15T07:06:29.160Z,27.12
2019-05-15T07:07:29.061Z,27.13
2019-05-15T07:08:29.164Z,27.18
2019-05-15T07:09:29.071Z,27.14
2019-05-15T07:10:29.167Z,27.14
2019-05-15T07:11:29.091Z,27.22
2019-05-15T07:12:29.074Z,27.17
2019-05-15T07:13:29.243Z,27.25
2019-05-15T07:14:29.084Z,27.24
2019-05-15T07:15:29.081Z,27.18
2019-05-15T07:16:29.184Z,27.27
2019-05-15T07:17:29.187Z,27.29
2019-05-15T07:18:29.138Z,27.24
2019-05-15T07:19:29.295Z,27.36
2019-05-15T07:20:29.149Z,27.31
2019-05-15T07:21:29.479Z,27.32
2019-05-15T07:22:29.122Z,27.40
2019-05-15T07:23:30.725Z,27.32
2019-05-15T07:24:29.158Z,27.31
2019-05-15T07:25:29.425Z,27.28
2019-05-15T07:26:29.212Z,27.31
2019-05-15T07:27:29.215Z,27.29
2019-05-15T07:28:29.122Z,27.39
2019-05-15T07:29:29.296Z,27.28
2019-05-15T07:30:29.119Z,27.37
2019-05-15T07:31:29.218Z,27.43
2019-05-15T07:32:29.427Z,27.40
2019-05-15T07:33:39.768Z,27.32
2019-05-15T07:34:29.143Z,27.43
2019-05-15T07:35:29.143Z,27.40
2019-05-15T07:36:29.194Z,27.28
2019-05-15T07:37:29.201Z,27.43
2019-05-15T07:38:29.300Z,27.41
2019-05-15T07:39:29.144Z,27.41
2019-05-15T07:40:29.994Z,27.39
2019-05-15T07:41:29.448Z,27.47
2019-05-15T07:42:29.300Z,27.37
2019-05-15T07:43:29.163Z,27.47
2019-05-15T07:44:29.210Z,27.40
2019-05-15T07:45:29.175Z,27.47
2019-05-15T07:46:29.287Z,27.32
2019-05-15T07:47:29.433Z,27.39
2019-05-15T07:48:29.341Z,27.43
2019-05-15T07:49:29.172Z,27.44
2019-05-15T07:50:29.955Z,27.44
2019-05-15T07:51:29.195Z,27.49
2019-05-15T07:52:29.381Z,27.50
2019-05-15T07:53:29.228Z,27.51
2019-05-15T07:54:29.238Z,27.51
2019-05-15T07:55:29.721Z,27.55
2019-05-15T07:56:29.242Z,27.55
2019-05-15T07:57:29.923Z,27.47
2019-05-15T07:58:29.302Z,27.50
2019-05-15T07:59:29.200Z,27.51
2019-05-15T08:00:29.400Z,27.51
2019-05-15T08:01:29.516Z,27.51
2019-05-15T08:02:29.663Z,27.60
2019-05-15T08:03:29.719Z,27.60
2019-05-15T08:04:32.935Z,27.62
2019-05-15T08:05:29.318Z,27.50
2019-05-15T08:06:29.423Z,27.60
2019-05-15T08:07:29.674Z,27.57
2019-05-15T08:08:29.373Z,27.57
2019-05-15T08:09:29.779Z,27.57
2019-05-15T08:10:29.577Z,27.57
2019-05-15T08:11:29.629Z,27.50
2019-05-15T08:12:29.682Z,27.55
2019-05-15T08:13:29.836Z,27.60
2019-05-15T08:14:29.488Z,27.60
2019-05-15T08:15:29.389Z,27.66
2019-05-15T08:16:29.702Z,27.59
2019-05-15T08:17:29.851Z,27.60
2019-05-15T08:18:29.768Z,27.63
2019-05-15T08:19:29.655Z,27.62
2019-05-15T08:20:30.010Z,27.65
2019-05-15T08:21:29.757Z,27.66
2019-05-15T08:22:30.011Z,27.62
2019-05-15T08:23:29.510Z,27.66
2019-05-15T08:24:30.006Z,27.66
2019-05-15T08:25:35.135Z,27.66
2019-05-15T08:26:29.475Z,27.65
2019-05-15T08:27:30.043Z,27.70
2019-05-15T08:28:29.276Z,27.69
2019-05-15T08:29:29.278Z,27.69
2019-05-15T08:30:29.332Z,27.74
2019-05-15T08:31:29.447Z,27.77
2019-05-15T08:32:29.503Z,27.63
2019-05-15T08:33:29.390Z,27.67
2019-05-15T08:34:29.297Z,27.77
2019-05-15T08:35:29.368Z,27.70
2019-05-15T08:36:31.215Z,27.70
2019-05-15T08:37:29.602Z,27.75
2019-05-15T08:38:29.403Z,27.75
2019-05-15T08:39:29.409Z,27.79
2019-05-15T08:40:29.310Z,27.63
2019-05-15T08:41:29.636Z,27.70
2019-05-15T08:42:32.149Z,27.75
2019-05-15T08:43:31.413Z,27.67
2019-05-15T08:44:29.588Z,27.65
2019-05-15T08:45:29.337Z,27.65
2019-05-15T08:46:29.327Z,27.65
2019-05-15T08:47:30.043Z,27.65
2019-05-15T08:48:32.607Z,27.67
2019-05-15T08:49:29.485Z,27.66
2019-05-15T08:50:29.492Z,27.70
2019-05-15T08:51:29.791Z,27.70
2019-05-15T08:52:29.844Z,27.67
2019-05-15T08:53:29.396Z,27.66
2019-05-15T08:54:29.586Z,27.72
2019-05-15T08:55:29.459Z,27.65
2019-05-15T08:56:29.356Z,27.65
2019-05-15T08:57:29.359Z,27.63
2019-05-15T08:58:29.358Z,27.69
2019-05-15T08:59:29.640Z,27.69
2019-05-15T09:00:29.614Z,27.78
2019-05-15T09:01:29.419Z,27.69
2019-05-15T09:02:29.821Z,27.75
2019-05-15T09:03:29.980Z,27.77
2019-05-15T09:04:34.436Z,27.74
2019-05-15T09:05:29.482Z,27.69
2019-05-15T09:06:29.483Z,27.62
2019-05-15T09:07:29.703Z,27.66
2019-05-15T09:08:29.600Z,27.65
2019-05-15T09:09:29.551Z,27.60
2019-05-15T09:10:29.442Z,27.63
2019-05-15T09:11:29.545Z,27.62
2019-05-15T09:12:29.654Z,27.66
2019-05-15T09:13:29.604Z,27.69
2019-05-15T09:14:29.455Z,27.63
2019-05-15T09:15:29.533Z,27.77
2019-05-15T09:16:29.411Z,27.69
2019-05-15T09:17:29.421Z,27.67
2019-05-15T09:18:29.516Z,27.72
2019-05-15T09:19:29.422Z,27.75
2019-05-15T09:20:29.422Z,27.67
2019-05-15T09:21:29.475Z,27.77
2019-05-15T09:22:29.438Z,27.66
2019-05-15T09:23:29.429Z,27.66
2019-05-15T09:24:29.533Z,27.75
2019-05-15T09:25:29.489Z,27.62
2019-05-15T09:26:29.439Z,27.69
2019-05-15T09:27:29.643Z,27.63
2019-05-15T09:28:29.836Z,27.66
2019-05-15T09:29:29.496Z,27.67
2019-05-15T09:30:29.448Z,27.63
2019-05-15T09:31:29.471Z,27.66
2019-05-15T09:32:29.454Z,27.70
2019-05-15T09:33:29.459Z,27.79
2019-05-15T09:34:46.417Z,27.72
2019-05-15T09:35:29.514Z,27.70
2019-05-15T09:36:29.466Z,27.79
2019-05-15T09:37:29.470Z,27.75
2019-05-15T09:38:29.472Z,27.75
2019-05-15T09:39:29.476Z,27.75
2019-05-15T09:40:42.458Z,27.70
2019-05-15T09:41:29.483Z,27.81
2019-05-15T09:42:29.734Z,27.78
2019-05-15T09:43:29.486Z,27.77
2019-05-15T09:44:29.489Z,27.79
2019-05-15T09:45:29.554Z,27.78
2019-05-15T09:46:29.645Z,27.79
2019-05-15T09:47:29.877Z,27.74
2019-05-15T09:48:29.600Z,27.79
2019-05-15T09:49:29.507Z,27.78
2019-05-15T09:50:29.518Z,27.75
2019-05-15T09:51:29.559Z,27.81
2019-05-15T09:52:30.218Z,27.79
2019-05-15T09:53:29.519Z,27.78
2019-05-15T09:54:29.619Z,27.69
2019-05-15T09:55:29.521Z,27.77
2019-05-15T09:56:29.537Z,27.77
2019-05-15T09:57:30.320Z,27.79
2019-05-15T09:58:30.274Z,27.97
2019-05-15T09:59:29.742Z,27.75
2019-05-15T10:00:29.890Z,27.85
2019-05-15T10:01:29.739Z,27.77
2019-05-15T10:02:30.141Z,27.81
2019-05-15T10:03:29.902Z,27.85
2019-05-15T10:04:30.049Z,27.70
2019-05-15T10:05:30.148Z,27.93
2019-05-15T10:06:29.751Z,27.74
2019-05-15T10:07:29.655Z,27.84
2019-05-15T10:08:29.558Z,27.84
2019-05-15T10:09:29.559Z,27.78
2019-05-15T10:10:29.566Z,27.75
2019-05-15T10:11:29.665Z,27.78
2019-05-15T10:12:34.896Z,27.75
2019-05-15T10:13:29.673Z,27.77
2019-05-15T10:14:29.820Z,27.72
2019-05-15T10:15:29.679Z,27.84
2019-05-15T10:16:29.631Z,27.70
2019-05-15T10:17:29.783Z,27.81
2019-05-15T10:18:29.636Z,27.75
2019-05-15T10:19:29.587Z,27.72
2019-05-15T10:20:29.600Z,27.77
2019-05-15T10:21:32.606Z,27.81
2019-05-15T10:22:29.597Z,27.74
2019-05-15T10:23:29.603Z,27.78
2019-05-15T10:24:29.601Z,27.75
2019-05-15T10:25:29.708Z,27.79
2019-05-15T10:26:29.665Z,27.75
2019-05-15T10:27:29.611Z,27.82
2019-05-15T10:28:29.620Z,27.79
2019-05-15T10:29:29.618Z,27.85
2019-05-15T10:30:29.624Z,27.84
2019-05-15T10:31:29.679Z,27.74
2019-05-15T10:32:29.677Z,27.77
2019-05-15T10:33:29.831Z,27.79
2019-05-15T10:34:29.641Z,27.82
2019-05-15T10:35:31.828Z,27.78
2019-05-15T10:36:29.637Z,27.82
2019-05-15T10:37:29.641Z,27.69
2019-05-15T10:38:29.748Z,27.66
2019-05-15T10:39:29.645Z,27.66
2019-05-15T10:40:29.864Z,27.69
2019-05-15T10:41:29.653Z,27.69
2019-05-15T10:42:29.664Z,27.69
2019-05-15T10:43:29.705Z,27.65
2019-05-15T10:44:29.660Z,27.66
2019-05-15T10:45:29.747Z,27.72
2019-05-15T10:46:29.665Z,27.66
2019-05-15T10:47:29.852Z,27.67
2019-05-15T10:48:29.732Z,27.65
2019-05-15T10:49:29.824Z,27.74
2019-05-15T10:50:29.676Z,27.75
2019-05-15T10:51:29.683Z,27.65
2019-05-15T10:52:29.683Z,27.74
2019-05-15T10:53:29.873Z,27.69
2019-05-15T10:54:29.687Z,27.70
2019-05-15T10:55:29.691Z,27.69
2019-05-15T10:56:29.715Z,27.67
2019-05-15T10:57:29.749Z,27.63
2019-05-15T10:58:29.749Z,27.63
2019-05-15T10:59:29.752Z,27.78
2019-05-15T11:00:29.803Z,27.74
2019-05-15T11:01:29.809Z,27.66
2019-05-15T11:02:29.962Z,27.65
2019-05-15T11:03:30.264Z,27.63
2019-05-15T11:04:29.766Z,27.70
2019-05-15T11:05:40.554Z,27.70
2019-05-15T11:06:29.722Z,27.77
2019-05-15T11:07:29.725Z,27.79
2019-05-15T11:08:29.828Z,27.72
2019-05-15T11:09:29.783Z,27.69
2019-05-15T11:10:29.734Z,27.67
2019-05-15T11:11:29.738Z,27.63
2019-05-15T11:12:29.938Z,27.77
2019-05-15T11:13:29.794Z,27.69
2019-05-15T11:14:29.845Z,27.65
2019-05-15T11:15:29.748Z,27.74
2019-05-15T11:16:29.801Z,27.77
2019-05-15T11:17:31.601Z,27.66
2019-05-15T11:18:30.754Z,27.67
2019-05-15T11:19:35.603Z,27.77
2019-05-15T11:20:29.764Z,27.60
2019-05-15T11:21:30.321Z,27.70
2019-05-15T11:22:30.013Z,27.62
2019-05-15T11:23:29.821Z,27.67
2019-05-15T11:24:32.432Z,27.65
2019-05-15T11:25:30.163Z,27.65
2019-05-15T11:26:33.493Z,27.57
2019-05-15T11:27:31.354Z,27.57
2019-05-15T11:28:32.362Z,27.63
2019-05-15T11:29:29.788Z,27.65
2019-05-15T11:30:29.890Z,27.75
2019-05-15T11:31:29.945Z,27.62
2019-05-15T11:32:29.946Z,27.66
2019-05-15T11:33:29.999Z,27.75
2019-05-15T11:34:29.805Z,27.72
2019-05-15T11:35:29.805Z,27.66
2019-05-15T11:36:29.810Z,27.62
2019-05-15T11:37:29.966Z,27.69
2019-05-15T11:38:29.812Z,27.67
2019-05-15T11:39:29.967Z,27.62
2019-05-15T11:40:29.919Z,27.62
2019-05-15T11:41:29.924Z,27.57
2019-05-15T11:42:30.127Z,27.67
2019-05-15T11:43:29.884Z,27.51
2019-05-15T11:44:29.829Z,27.65
2019-05-15T11:45:29.833Z,27.57
2019-05-15T11:46:29.835Z,27.66
2019-05-15T11:47:29.838Z,27.62
2019-05-15T11:48:30.226Z,27.59
2019-05-15T11:49:29.845Z,27.62
2019-05-15T11:50:29.995Z,27.65
2019-05-15T11:51:30.048Z,27.63
2019-05-15T11:52:29.919Z,27.57
2019-05-15T11:53:29.860Z,27.62
2019-05-15T11:54:29.959Z,27.60
2019-05-15T11:55:29.959Z,27.62
2019-05-15T11:56:29.882Z,27.65
2019-05-15T11:57:42.652Z,27.66
2019-05-15T11:58:29.918Z,27.62
2019-05-15T11:59:30.270Z,27.59
2019-05-15T12:00:30.428Z,27.65
2019-05-15T12:01:29.984Z,27.60
2019-05-15T12:02:31.059Z,27.57
2019-05-15T12:03:30.534Z,27.60
2019-05-15T12:04:33.979Z,27.54
2019-05-15T12:05:30.391Z,27.51
2019-05-15T12:06:30.592Z,27.55
2019-05-15T12:07:30.546Z,27.63
2019-05-15T12:08:30.397Z,27.50
2019-05-15T12:09:29.902Z,27.60
2019-05-15T12:10:30.005Z,27.67
2019-05-15T12:11:36.767Z,27.60
2019-05-15T12:12:32.046Z,27.59
2019-05-15T12:13:30.113Z,27.62
2019-05-15T12:14:29.942Z,27.60
2019-05-15T12:15:30.018Z,27.55
2019-05-15T12:16:30.018Z,27.54
2019-05-15T12:17:29.922Z,27.60
2019-05-15T12:18:30.077Z,27.60
2019-05-15T12:19:29.926Z,27.63
2019-05-15T12:20:30.087Z,27.60
2019-05-15T12:21:30.435Z,27.66
2019-05-15T12:22:30.145Z,27.67
2019-05-15T12:23:30.038Z,27.67
2019-05-15T12:24:35.330Z,27.63
2019-05-15T12:25:31.957Z,27.63
2019-05-15T12:26:30.053Z,27.67
2019-05-15T12:27:30.100Z,27.60
2019-05-15T12:28:30.019Z,27.63
2019-05-15T12:29:29.970Z,27.66
2019-05-15T12:30:30.107Z,27.62
2019-05-15T12:31:29.961Z,27.67
2019-05-15T12:32:36.004Z,27.69
2019-05-15T12:33:30.121Z,27.69
2019-05-15T12:34:29.970Z,27.69
2019-05-15T12:35:30.124Z,27.69
2019-05-15T12:36:51.306Z,27.72
2019-05-15T12:37:30.031Z,27.60
2019-05-15T12:38:30.033Z,27.67
2019-05-15T12:39:30.592Z,27.63
2019-05-15T13:00:30.243Z,27.78
2019-05-15T13:01:30.495Z,27.66
2019-05-15T13:02:30.350Z,27.69
2019-05-15T13:03:30.453Z,27.75
2019-05-15T13:04:30.412Z,27.70
2019-05-15T13:05:32.513Z,27.79
2019-05-15T13:06:30.376Z,27.75
2019-05-15T13:07:30.512Z,27.70
2019-05-15T13:08:30.170Z,27.70
2019-05-15T13:09:30.519Z,27.82
2019-05-15T13:10:30.428Z,27.81
2019-05-15T13:11:30.626Z,27.78
2019-05-15T13:12:30.528Z,27.70